sensor_id;sensor_type;location;lat;lon;timestamp;pressure;altitude;pressure_sealevel;temperature;humidity
16664;BME280;8445;51.270;9.434;2022-10-26T00:01:11;99591.16;;;8.05;82.00
16664;BME280;8445;51.270;9.434;2022-10-26T00:03:39;99589.34;;;8.06;80.54
16664;BME280;8445;51.270;9.434;2022-10-26T00:06:12;99583.63;;;8.13;81.17
16664;BME280;8445;51.270;9.434;2022-10-26T00:08:38;99589.81;;;8.12;80.46
16664;BME280;8445;51.270;9.434;2022-10-26T00:11:06;99592.34;;;8.14;80.48
16664;BME280;8445;51.270;9.434;2022-10-26T00:13:33;99586.69;;;8.20;81.31
16664;BME280;8445;51.270;9.434;2022-10-26T00:16:00;99592.41;;;8.27;81.13
16664;BME280;8445;51.270;9.434;2022-10-26T00:18:26;99582.97;;;8.37;81.10
16664;BME280;8445;51.270;9.434;2022-10-26T00:20:52;99588.06;;;8.55;81.35
16664;BME280;8445;51.270;9.434;2022-10-26T00:23:18;99589.81;;;8.69;81.33
16664;BME280;8445;51.270;9.434;2022-10-26T00:25:50;99580.03;;;8.84;82.79
16664;BME280;8445;51.270;9.434;2022-10-26T00:28:18;99589.44;;;8.88;81.71
16664;BME280;8445;51.270;9.434;2022-10-26T00:30:43;99588.50;;;8.89;82.00
16664;BME280;8445;51.270;9.434;2022-10-26T00:33:12;99589.34;;;8.89;82.49
16664;BME280;8445;51.270;9.434;2022-10-26T00:35:38;99588.50;;;8.89;82.70
16664;BME280;8445;51.270;9.434;2022-10-26T00:38:04;99589.34;;;8.89;82.40
16664;BME280;8445;51.270;9.434;2022-10-26T00:40:29;99586.38;;;8.81;82.69
16664;BME280;8445;51.270;9.434;2022-10-26T00:42:56;99575.59;;;8.71;82.35
16664;BME280;8445;51.270;9.434;2022-10-26T00:45:28;99578.50;;;8.67;83.04
16664;BME280;8445;51.270;9.434;2022-10-26T00:48:01;99582.84;;;8.68;83.21
16664;BME280;8445;51.270;9.434;2022-10-26T00:50:36;99572.19;;;8.69;83.42
16664;BME280;8445;51.270;9.434;2022-10-26T00:53:06;99578.50;;;8.67;81.80
16664;BME280;8445;51.270;9.434;2022-10-26T00:55:37;99575.78;;;8.68;81.93
16664;BME280;8445;51.270;9.434;2022-10-26T00:58:07;99577.47;;;8.69;81.74
16664;BME280;8445;51.270;9.434;2022-10-26T01:00:35;99575.78;;;8.68;81.23
16664;BME280;8445;51.270;9.434;2022-10-26T01:03:06;99567.88;;;8.68;82.31
16664;BME280;8445;51.270;9.434;2022-10-26T01:05:36;99565.13;;;8.70;81.42
16664;BME280;8445;51.270;9.434;2022-10-26T01:08:03;99567.47;;;8.74;81.59
16664;BME280;8445;51.270;9.434;2022-10-26T01:10:29;99563.78;;;8.77;80.75
16664;BME280;8445;51.270;9.434;2022-10-26T01:12:57;99558.31;;;8.80;81.88
16664;BME280;8445;51.270;9.434;2022-10-26T01:16:01;99558.00;;;8.85;83.89
16664;BME280;8445;51.270;9.434;2022-10-26T01:27:04;99558.03;;;8.43;83.68
16664;BME280;8445;51.270;9.434;2022-10-26T01:29:58;99555.78;;;8.37;82.91
16664;BME280;8445;51.270;9.434;2022-10-26T01:33:00;99542.50;;;8.38;84.51
16664;BME280;8445;51.270;9.434;2022-10-26T01:35:42;99545.34;;;8.35;84.41
16664;BME280;8445;51.270;9.434;2022-10-26T01:38:43;99541.56;;;8.39;84.37
16664;BME280;8445;51.270;9.434;2022-10-26T01:41:34;99538.84;;;8.41;85.12
16664;BME280;8445;51.270;9.434;2022-10-26T01:44:07;99535.72;;;8.34;83.77
16664;BME280;8445;51.270;9.434;2022-10-26T01:46:43;99528.69;;;8.35;83.13
16664;BME280;8445;51.270;9.434;2022-10-26T01:49:13;99530.06;;;8.40;83.60
16664;BME280;8445;51.270;9.434;2022-10-26T01:51:43;99521.22;;;8.41;84.43
16664;BME280;8445;51.270;9.434;2022-10-26T01:54:10;99519.13;;;8.46;82.88
16664;BME280;8445;51.270;9.434;2022-10-26T01:56:44;99520.78;;;8.49;83.72
16664;BME280;8445;51.270;9.434;2022-10-26T02:06:14;99509.72;;;8.57;85.05
16664;BME280;8445;51.270;9.434;2022-10-26T02:08:51;99510.75;;;8.54;84.28
16664;BME280;8445;51.270;9.434;2022-10-26T02:11:41;99508.97;;;8.55;84.99
16664;BME280;8445;51.270;9.434;2022-10-26T02:14:32;99504.47;;;8.42;84.10
16664;BME280;8445;51.270;9.434;2022-10-26T02:17:10;99502.22;;;8.36;83.86
16664;BME280;8445;51.270;9.434;2022-10-26T02:22:28;99500.72;;;8.32;83.79
16664;BME280;8445;51.270;9.434;2022-10-26T02:25:00;99506.19;;;8.29;83.26
16664;BME280;8445;51.270;9.434;2022-10-26T02:27:35;99493.75;;;8.31;83.72
16664;BME280;8445;51.270;9.434;2022-10-26T02:30:05;99497.88;;;8.35;82.84
16664;BME280;8445;51.270;9.434;2022-10-26T02:32:34;99501.06;;;8.40;82.96
16664;BME280;8445;51.270;9.434;2022-10-26T02:35:04;99495.16;;;8.51;82.76
16664;BME280;8445;51.270;9.434;2022-10-26T02:37:33;99495.25;;;8.63;84.40
16664;BME280;8445;51.270;9.434;2022-10-26T02:40:06;99488.84;;;8.67;84.09
16664;BME280;8445;51.270;9.434;2022-10-26T02:42:35;99489.50;;;8.70;83.63
16664;BME280;8445;51.270;9.434;2022-10-26T02:45:09;99483.16;;;8.73;84.17
16664;BME280;8445;51.270;9.434;2022-10-26T02:47:35;99481.28;;;8.75;83.24
16664;BME280;8445;51.270;9.434;2022-10-26T02:50:02;99477.69;;;8.76;83.84
16664;BME280;8445;51.270;9.434;2022-10-26T02:55:19;99472.63;;;8.86;84.86
16664;BME280;8445;51.270;9.434;2022-10-26T02:57:53;99472.41;;;8.89;83.94
16664;BME280;8445;51.270;9.434;2022-10-26T03:00:21;99475.81;;;8.91;83.48
16664;BME280;8445;51.270;9.434;2022-10-26T03:02:57;99473.69;;;8.96;86.82
16664;BME280;8445;51.270;9.434;2022-10-26T03:05:26;99469.91;;;9.00;84.20
16664;BME280;8445;51.270;9.434;2022-10-26T03:07:54;99472.03;;;9.08;83.63
16664;BME280;8445;51.270;9.434;2022-10-26T03:10:21;99472.56;;;9.26;84.65
16664;BME280;8445;51.270;9.434;2022-10-26T03:12:47;99469.56;;;9.44;84.33
16664;BME280;8445;51.270;9.434;2022-10-26T03:15:13;99480.03;;;9.58;84.38
16664;BME280;8445;51.270;9.434;2022-10-26T03:17:42;99478.63;;;9.66;84.07
16664;BME280;8445;51.270;9.434;2022-10-26T03:20:12;99475.78;;;9.69;83.88
16664;BME280;8445;51.270;9.434;2022-10-26T03:22:41;99484.00;;;9.77;86.90
16664;BME280;8445;51.270;9.434;2022-10-26T03:25:09;99481.88;;;9.82;85.62
16664;BME280;8445;51.270;9.434;2022-10-26T03:27:36;99478.81;;;9.88;83.61
16664;BME280;8445;51.270;9.434;2022-10-26T03:30:03;99479.94;;;9.97;85.95
16664;BME280;8445;51.270;9.434;2022-10-26T03:32:32;99483.44;;;9.98;84.31
16664;BME280;8445;51.270;9.434;2022-10-26T03:34:58;99483.09;;;10.02;84.67
16664;BME280;8445;51.270;9.434;2022-10-26T03:37:24;99469.38;;;9.97;83.70
16664;BME280;8445;51.270;9.434;2022-10-26T03:39:50;99469.81;;;9.91;83.08
16664;BME280;8445;51.270;9.434;2022-10-26T03:42:15;99470.06;;;9.75;83.48
16664;BME280;8445;51.270;9.434;2022-10-26T03:44:41;99478.03;;;9.62;83.26
16664;BME280;8445;51.270;9.434;2022-10-26T03:47:07;99466.06;;;9.56;83.92
16664;BME280;8445;51.270;9.434;2022-10-26T03:49:33;99475.06;;;9.54;83.81
16664;BME280;8445;51.270;9.434;2022-10-26T03:52:01;99480.03;;;9.45;83.85
16664;BME280;8445;51.270;9.434;2022-10-26T03:54:26;99470.78;;;9.40;84.05
16664;BME280;8445;51.270;9.434;2022-10-26T03:56:52;99473.09;;;9.31;83.84
16664;BME280;8445;51.270;9.434;2022-10-26T03:59:18;99475.41;;;9.23;84.43
16664;BME280;8445;51.270;9.434;2022-10-26T04:01:44;99465.59;;;9.12;83.36
16664;BME280;8445;51.270;9.434;2022-10-26T04:04:10;99471.19;;;9.08;83.71
16664;BME280;8445;51.270;9.434;2022-10-26T04:06:35;99473.28;;;9.02;83.78
16664;BME280;8445;51.270;9.434;2022-10-26T04:09:01;99469.06;;;9.00;84.18
16664;BME280;8445;51.270;9.434;2022-10-26T04:11:28;99468.22;;;8.99;85.04
16664;BME280;8445;51.270;9.434;2022-10-26T04:13:54;99466.44;;;9.00;84.94
16664;BME280;8445;51.270;9.434;2022-10-26T04:16:20;99457.44;;;9.02;85.00
16664;BME280;8445;51.270;9.434;2022-10-26T04:18:46;99463.38;;;9.06;84.22
16664;BME280;8445;51.270;9.434;2022-10-26T04:21:12;99468.00;;;9.02;84.68
16664;BME280;8445;51.270;9.434;2022-10-26T04:23:38;99464.63;;;9.00;84.58
16664;BME280;8445;51.270;9.434;2022-10-26T04:26:04;99457.13;;;8.94;84.89
16664;BME280;8445;51.270;9.434;2022-10-26T04:28:30;99468.97;;;9.01;85.41
16664;BME280;8445;51.270;9.434;2022-10-26T04:30:56;99474.22;;;9.01;85.39
16664;BME280;8445;51.270;9.434;2022-10-26T04:33:22;99473.28;;;9.02;84.91
16664;BME280;8445;51.270;9.434;2022-10-26T04:35:48;99476.13;;;8.99;84.62
16664;BME280;8445;51.270;9.434;2022-10-26T04:38:14;99469.91;;;9.00;84.74
16664;BME280;8445;51.270;9.434;2022-10-26T04:40:39;99474.78;;;9.07;84.93
16664;BME280;8445;51.270;9.434;2022-10-26T04:43:05;99479.63;;;9.13;84.97
16664;BME280;8445;51.270;9.434;2022-10-26T04:45:31;99476.16;;;9.12;84.70
16664;BME280;8445;51.270;9.434;2022-10-26T04:48:06;99475.84;;;9.17;85.39
16664;BME280;8445;51.270;9.434;2022-10-26T04:50:33;99470.22;;;9.22;85.31
16664;BME280;8445;51.270;9.434;2022-10-26T04:53:06;99474.34;;;9.26;85.89
16664;BME280;8445;51.270;9.434;2022-10-26T04:55:33;99472.44;;;9.28;85.16
16664;BME280;8445;51.270;9.434;2022-10-26T04:57:59;99467.06;;;9.29;85.36
16664;BME280;8445;51.270;9.434;2022-10-26T05:00:24;99480.06;;;9.32;85.31
16664;BME280;8445;51.270;9.434;2022-10-26T05:02:51;99466.94;;;9.31;84.85
16664;BME280;8445;51.270;9.434;2022-10-26T05:05:18;99479.00;;;9.35;85.03
16664;BME280;8445;51.270;9.434;2022-10-26T05:07:52;99475.19;;;9.39;85.35
16664;BME280;8445;51.270;9.434;2022-10-26T05:10:18;99477.00;;;9.39;84.46
16664;BME280;8445;51.270;9.434;2022-10-26T05:12:50;99471.59;;;9.40;85.24
16664;BME280;8445;51.270;9.434;2022-10-26T05:15:16;99462.59;;;9.43;85.13
16664;BME280;8445;51.270;9.434;2022-10-26T05:17:42;99470.44;;;9.44;85.46
16664;BME280;8445;51.270;9.434;2022-10-26T05:20:08;99473.06;;;9.44;86.07
16664;BME280;8445;51.270;9.434;2022-10-26T05:22:39;99472.94;;;9.46;85.91
16664;BME280;8445;51.270;9.434;2022-10-26T05:25:05;99475.94;;;9.41;84.51
16664;BME280;8445;51.270;9.434;2022-10-26T05:27:31;99467.38;;;9.38;84.30
16664;BME280;8445;51.270;9.434;2022-10-26T05:29:57;99472.88;;;9.34;84.61
16664;BME280;8445;51.270;9.434;2022-10-26T05:32:22;99477.00;;;9.39;84.69
16664;BME280;8445;51.270;9.434;2022-10-26T05:34:48;99479.72;;;9.37;85.60
16664;BME280;8445;51.270;9.434;2022-10-26T05:37:14;99473.09;;;9.31;85.43
16664;BME280;8445;51.270;9.434;2022-10-26T05:39:40;99469.81;;;9.28;85.27
16664;BME280;8445;51.270;9.434;2022-10-26T05:42:06;99477.94;;;9.25;85.13
16664;BME280;8445;51.270;9.434;2022-10-26T05:44:31;99477.94;;;9.25;85.55
16664;BME280;8445;51.270;9.434;2022-10-26T05:46:57;99475.72;;;9.31;85.85
16664;BME280;8445;51.270;9.434;2022-10-26T05:49:23;99487.97;;;9.32;85.80
16664;BME280;8445;51.270;9.434;2022-10-26T05:51:49;99490.69;;;9.44;85.85
16664;BME280;8445;51.270;9.434;2022-10-26T05:54:14;99485.09;;;9.61;85.90
16664;BME280;8445;51.270;9.434;2022-10-26T05:56:41;99483.78;;;9.80;85.73
16664;BME280;8445;51.270;9.434;2022-10-26T05:59:15;99495.69;;;9.99;86.66
16664;BME280;8445;51.270;9.434;2022-10-26T06:02:04;99488.78;;;10.09;86.88
16664;BME280;8445;51.270;9.434;2022-10-26T06:04:43;99498.06;;;10.15;86.42
16664;BME280;8445;51.270;9.434;2022-10-26T06:07:19;99487.31;;;10.05;85.40
16664;BME280;8445;51.270;9.434;2022-10-26T06:09:46;99497.25;;;10.01;85.13
16664;BME280;8445;51.270;9.434;2022-10-26T06:12:13;99504.03;;;10.05;85.50
16664;BME280;8445;51.270;9.434;2022-10-26T06:14:40;99500.59;;;10.16;86.28
16664;BME280;8445;51.270;9.434;2022-10-26T06:17:45;99507.38;;;10.45;90.32
16664;BME280;8445;51.270;9.434;2022-10-26T06:23:31;99507.38;;;10.69;89.04
16664;BME280;8445;51.270;9.434;2022-10-26T06:26:14;99507.50;;;10.67;86.61
16664;BME280;8445;51.270;9.434;2022-10-26T06:31:23;99514.16;;;10.85;86.91
16664;BME280;8445;51.270;9.434;2022-10-26T06:33:51;99517.81;;;10.95;86.60
16664;BME280;8445;51.270;9.434;2022-10-26T06:36:24;99519.41;;;11.09;86.67
16664;BME280;8445;51.270;9.434;2022-10-26T06:39:06;99519.06;;;11.25;90.17
16664;BME280;8445;51.270;9.434;2022-10-26T06:41:35;99520.53;;;11.29;86.14
16664;BME280;8445;51.270;9.434;2022-10-26T06:44:02;99517.31;;;11.37;85.78
16664;BME280;8445;51.270;9.434;2022-10-26T06:46:47;99516.00;;;11.54;86.98
16664;BME280;8445;51.270;9.434;2022-10-26T06:49:21;99513.59;;;11.62;86.07
16664;BME280;8445;51.270;9.434;2022-10-26T06:52:02;99513.22;;;11.78;86.96
16664;BME280;8445;51.270;9.434;2022-10-26T06:54:52;99516.34;;;11.95;86.86
16664;BME280;8445;51.270;9.434;2022-10-26T06:57:26;99512.59;;;11.97;86.28
16664;BME280;8445;51.270;9.434;2022-10-26T07:00:13;99514.31;;;12.10;86.79
16664;BME280;8445;51.270;9.434;2022-10-26T07:02:43;99507.78;;;12.14;85.61
16664;BME280;8445;51.270;9.434;2022-10-26T07:05:09;99510.53;;;12.24;85.88
16664;BME280;8445;51.270;9.434;2022-10-26T07:07:42;99513.41;;;12.32;86.08
16664;BME280;8445;51.270;9.434;2022-10-26T07:10:10;99526.03;;;12.40;85.88
16664;BME280;8445;51.270;9.434;2022-10-26T07:12:36;99522.13;;;12.55;86.02
16664;BME280;8445;51.270;9.434;2022-10-26T07:15:04;99519.44;;;12.67;86.41
16664;BME280;8445;51.270;9.434;2022-10-26T07:17:30;99529.31;;;12.76;85.73
16664;BME280;8445;51.270;9.434;2022-10-26T07:19:56;99523.09;;;12.87;85.36
16664;BME280;8445;51.270;9.434;2022-10-26T07:22:22;99530.44;;;12.95;85.32
16664;BME280;8445;51.270;9.434;2022-10-26T07:24:49;99530.75;;;13.01;85.14
16664;BME280;8445;51.270;9.434;2022-10-26T07:27:17;99535.81;;;13.04;85.35
16664;BME280;8445;51.270;9.434;2022-10-26T07:29:46;99531.91;;;13.09;84.90
16664;BME280;8445;51.270;9.434;2022-10-26T07:32:14;99536.84;;;13.13;84.89
16664;BME280;8445;51.270;9.434;2022-10-26T07:34:40;99527.38;;;13.20;85.03
16664;BME280;8445;51.270;9.434;2022-10-26T07:37:06;99532.03;;;13.28;84.72
16664;BME280;8445;51.270;9.434;2022-10-26T07:39:32;99541.31;;;13.34;84.71
16664;BME280;8445;51.270;9.434;2022-10-26T07:41:58;99538.72;;;13.44;85.05
16664;BME280;8445;51.270;9.434;2022-10-26T07:44:23;99529.16;;;13.53;84.98
16664;BME280;8445;51.270;9.434;2022-10-26T07:46:50;99540.91;;;13.60;84.78
16664;BME280;8445;51.270;9.434;2022-10-26T07:49:16;99545.16;;;13.72;85.04
16664;BME280;8445;51.270;9.434;2022-10-26T07:51:43;99542.69;;;13.81;84.82
16664;BME280;8445;51.270;9.434;2022-10-26T07:54:09;99542.59;;;13.92;85.33
16664;BME280;8445;51.270;9.434;2022-10-26T07:56:35;99540.28;;;14.08;84.99
16664;BME280;8445;51.270;9.434;2022-10-26T07:59:01;99544.75;;;14.18;84.79
16664;BME280;8445;51.270;9.434;2022-10-26T08:01:26;99538.78;;;14.35;84.65
16664;BME280;8445;51.270;9.434;2022-10-26T08:03:54;99540.34;;;14.48;84.71
16664;BME280;8445;51.270;9.434;2022-10-26T08:06:21;99550.59;;;14.62;83.44
16664;BME280;8445;51.270;9.434;2022-10-26T08:08:47;99547.69;;;14.75;84.11
16664;BME280;8445;51.270;9.434;2022-10-26T08:11:14;99545.47;;;14.80;84.26
16664;BME280;8445;51.270;9.434;2022-10-26T08:13:40;99545.84;;;14.76;83.69
16664;BME280;8445;51.270;9.434;2022-10-26T08:16:07;99548.41;;;14.77;83.37
16664;BME280;8445;51.270;9.434;2022-10-26T08:18:33;99547.16;;;14.72;82.63
16664;BME280;8445;51.270;9.434;2022-10-26T08:21:10;99552.47;;;14.72;82.47
16664;BME280;8445;51.270;9.434;2022-10-26T08:23:40;99559.16;;;14.66;82.60
16664;BME280;8445;51.270;9.434;2022-10-26T08:26:15;99564.03;;;14.61;81.30
16664;BME280;8445;51.270;9.434;2022-10-26T08:28:43;99560.25;;;14.53;82.18
16664;BME280;8445;51.270;9.434;2022-10-26T08:31:09;99558.00;;;14.49;82.40
16664;BME280;8445;51.270;9.434;2022-10-26T08:33:34;99558.72;;;14.51;82.56
16664;BME280;8445;51.270;9.434;2022-10-26T08:36:04;99551.97;;;14.57;82.29
16664;BME280;8445;51.270;9.434;2022-10-26T08:38:30;99559.69;;;14.60;82.42
16664;BME280;8445;51.270;9.434;2022-10-26T08:41:06;99557.78;;;14.72;81.51
16664;BME280;8445;51.270;9.434;2022-10-26T08:43:51;99560.88;;;14.87;80.84
16664;BME280;8445;51.270;9.434;2022-10-26T08:46:31;99553.31;;;14.92;80.94
16664;BME280;8445;51.270;9.434;2022-10-26T08:49:39;99564.66;;;15.04;80.90
16664;BME280;8445;51.270;9.434;2022-10-26T08:52:12;99546.28;;;15.01;81.65
16664;BME280;8445;51.270;9.434;2022-10-26T08:54:54;99551.34;;;15.04;79.80
16664;BME280;8445;51.270;9.434;2022-10-26T08:57:39;99546.84;;;15.14;80.43
16664;BME280;8445;51.270;9.434;2022-10-26T09:00:16;99553.13;;;15.23;81.03
16664;BME280;8445;51.270;9.434;2022-10-26T09:02:44;99550.84;;;15.38;82.60
16664;BME280;8445;51.270;9.434;2022-10-26T09:05:17;99552.78;;;15.55;82.56
16664;BME280;8445;51.270;9.434;2022-10-26T09:08:20;99549.50;;;15.71;79.25
16664;BME280;8445;51.270;9.434;2022-10-26T09:19:50;99562.03;;;16.09;75.06
16664;BME280;8445;51.270;9.434;2022-10-26T09:22:43;99557.44;;;16.19;78.55
16664;BME280;8445;51.270;9.434;2022-10-26T09:25:22;99557.22;;;16.40;80.88
16664;BME280;8445;51.270;9.434;2022-10-26T09:28:00;99562.00;;;16.55;77.46
16664;BME280;8445;51.270;9.434;2022-10-26T09:30:27;99568.81;;;16.67;81.30
16664;BME280;8445;51.270;9.434;2022-10-26T09:33:18;99575.03;;;16.86;77.54
16664;BME280;8445;51.270;9.434;2022-10-26T09:35:55;99562.66;;;16.85;74.80
16664;BME280;8445;51.270;9.434;2022-10-26T09:38:33;99564.47;;;16.84;76.70
16664;BME280;8445;51.270;9.434;2022-10-26T09:41:13;99562.56;;;16.77;77.57
16664;BME280;8445;51.270;9.434;2022-10-26T09:44:11;99569.28;;;16.81;75.66
16664;BME280;8445;51.270;9.434;2022-10-26T09:47:14;99577.59;;;16.78;76.78
16664;BME280;8445;51.270;9.434;2022-10-26T09:49:59;99579.38;;;16.69;76.28
16664;BME280;8445;51.270;9.434;2022-10-26T09:52:26;99582.19;;;16.67;79.29
16664;BME280;8445;51.270;9.434;2022-10-26T09:54:52;99586.00;;;16.65;78.67
16664;BME280;8445;51.270;9.434;2022-10-26T09:57:19;99583.03;;;16.68;80.50
16664;BME280;8445;51.270;9.434;2022-10-26T09:59:46;99594.78;;;16.75;80.14
16664;BME280;8445;51.270;9.434;2022-10-26T10:02:38;99580.38;;;16.86;77.55
16664;BME280;8445;51.270;9.434;2022-10-26T10:05:32;99591.88;;;16.86;78.28
16664;BME280;8445;51.270;9.434;2022-10-26T10:08:25;99594.03;;;16.83;75.27
16664;BME280;8445;51.270;9.434;2022-10-26T10:11:13;99585.78;;;16.94;74.30
16664;BME280;8445;51.270;9.434;2022-10-26T10:13:42;99597.47;;;16.93;79.97
16664;BME280;8445;51.270;9.434;2022-10-26T10:16:19;99593.91;;;17.02;79.91
16664;BME280;8445;51.270;9.434;2022-10-26T10:21:50;99576.81;;;17.40;80.14
16664;BME280;8445;51.270;9.434;2022-10-26T10:24:34;99576.44;;;17.34;76.45
16664;BME280;8445;51.270;9.434;2022-10-26T10:29:49;99575.47;;;17.36;76.95
16664;BME280;8445;51.270;9.434;2022-10-26T10:32:36;99586.34;;;17.42;75.15
16664;BME280;8445;51.270;9.434;2022-10-26T10:35:23;99587.81;;;17.37;72.49
16664;BME280;8445;51.270;9.434;2022-10-26T10:37:50;99593.66;;;17.32;78.22
16664;BME280;8445;51.270;9.434;2022-10-26T10:40:20;99599.13;;;17.30;77.29
16664;BME280;8445;51.270;9.434;2022-10-26T10:42:50;99605.78;;;17.26;76.87
16664;BME280;8445;51.270;9.434;2022-10-26T10:45:36;99611.50;;;17.31;77.37
16664;BME280;8445;51.270;9.434;2022-10-26T10:48:15;99617.63;;;17.42;75.53
16664;BME280;8445;51.270;9.434;2022-10-26T10:51:04;99615.91;;;17.59;77.82
16664;BME280;8445;51.270;9.434;2022-10-26T10:53:44;99618.06;;;17.55;76.81
16664;BME280;8445;51.270;9.434;2022-10-26T11:08:29;99624.72;;;18.39;69.68
16664;BME280;8445;51.270;9.434;2022-10-26T11:14:51;99624.19;;;18.86;67.28
16664;BME280;8445;51.270;9.434;2022-10-26T11:17:27;99605.91;;;18.90;76.22
16664;BME280;8445;51.270;9.434;2022-10-26T11:20:18;99610.28;;;18.83;70.41
16664;BME280;8445;51.270;9.434;2022-10-26T11:23:14;99611.91;;;18.67;67.64
16664;BME280;8445;51.270;9.434;2022-10-26T11:32:00;99617.63;;;18.21;71.78
16664;BME280;8445;51.270;9.434;2022-10-26T11:43:40;99611.09;;;17.89;69.54
16664;BME280;8445;51.270;9.434;2022-10-26T11:46:12;99616.56;;;17.87;71.88
16664;BME280;8445;51.270;9.434;2022-10-26T11:51:49;99610.50;;;17.77;69.19
16664;BME280;8445;51.270;9.434;2022-10-26T11:54:32;99606.75;;;17.70;70.04
16664;BME280;8445;51.270;9.434;2022-10-26T11:56:59;99593.69;;;17.67;71.32
16664;BME280;8445;51.270;9.434;2022-10-26T11:59:32;99604.56;;;17.65;70.52
16664;BME280;8445;51.270;9.434;2022-10-26T12:02:24;99609.13;;;17.73;68.66
16664;BME280;8445;51.270;9.434;2022-10-26T12:05:15;99609.34;;;17.80;69.44
16664;BME280;8445;51.270;9.434;2022-10-26T12:07:52;99597.16;;;17.85;69.36
16664;BME280;8445;51.270;9.434;2022-10-26T12:13:00;99593.72;;;17.93;70.00
16664;BME280;8445;51.270;9.434;2022-10-26T12:15:38;99608.28;;;17.99;71.95
16664;BME280;8445;51.270;9.434;2022-10-26T12:21:05;99614.06;;;18.12;70.21
16664;BME280;8445;51.270;9.434;2022-10-26T12:23:37;99608.41;;;18.15;70.41
16664;BME280;8445;51.270;9.434;2022-10-26T12:39:35;99613.13;;;18.21;71.76
16664;BME280;8445;51.270;9.434;2022-10-26T12:52:52;99624.81;;;18.72;69.85
16664;BME280;8445;51.270;9.434;2022-10-26T12:55:49;99632.06;;;18.79;67.21
16664;BME280;8445;51.270;9.434;2022-10-26T12:58:54;99628.88;;;18.84;67.50
16664;BME280;8445;51.270;9.434;2022-10-26T13:05:18;99637.59;;;18.94;67.26
16664;BME280;8445;51.270;9.434;2022-10-26T13:07:50;99643.13;;;18.93;69.99
16664;BME280;8445;51.270;9.434;2022-10-26T13:10:24;99647.03;;;18.99;67.60
16664;BME280;8445;51.270;9.434;2022-10-26T13:13:20;99642.16;;;19.02;67.15
16664;BME280;8445;51.270;9.434;2022-10-26T13:15:56;99647.03;;;18.99;67.83
16664;BME280;8445;51.270;9.434;2022-10-26T13:18:28;99646.47;;;18.95;69.79
16664;BME280;8445;51.270;9.434;2022-10-26T13:21:10;99645.78;;;18.85;66.89
16664;BME280;8445;51.270;9.434;2022-10-26T13:24:03;99644.25;;;18.74;66.50
16664;BME280;8445;51.270;9.434;2022-10-26T13:29:31;99654.59;;;18.60;71.15
16664;BME280;8445;51.270;9.434;2022-10-26T13:31:58;99656.59;;;18.50;71.25
16664;BME280;8445;51.270;9.434;2022-10-26T13:34:29;99657.38;;;18.42;71.05
16664;BME280;8445;51.270;9.434;2022-10-26T13:37:20;99659.22;;;18.42;69.74
16664;BME280;8445;51.270;9.434;2022-10-26T13:39:49;99656.97;;;18.29;70.63
16664;BME280;8445;51.270;9.434;2022-10-26T13:42:25;99655.97;;;18.30;71.25
16664;BME280;8445;51.270;9.434;2022-10-26T13:45:14;99654.47;;;18.27;68.65
16664;BME280;8445;51.270;9.434;2022-10-26T13:48:10;99661.19;;;18.31;70.80
16664;BME280;8445;51.270;9.434;2022-10-26T13:50:50;99661.66;;;18.27;70.78
16664;BME280;8445;51.270;9.434;2022-10-26T13:56:28;99659.81;;;18.27;70.53
16664;BME280;8445;51.270;9.434;2022-10-26T13:59:09;99670.03;;;18.24;70.43
16664;BME280;8445;51.270;9.434;2022-10-26T14:01:37;99672.84;;;18.22;71.80
16664;BME280;8445;51.270;9.434;2022-10-26T14:04:16;99661.63;;;18.18;70.10
16664;BME280;8445;51.270;9.434;2022-10-26T14:06:50;99670.34;;;18.20;70.96
16664;BME280;8445;51.270;9.434;2022-10-26T14:09:17;99664.44;;;18.17;71.68
16664;BME280;8445;51.270;9.434;2022-10-26T14:12:02;99670.97;;;18.14;70.69
16664;BME280;8445;51.270;9.434;2022-10-26T14:14:33;99678.63;;;18.09;71.48
16664;BME280;8445;51.270;9.434;2022-10-26T14:17:00;99675.66;;;18.12;71.64
16664;BME280;8445;51.270;9.434;2022-10-26T14:19:40;99682.38;;;18.16;70.46
16664;BME280;8445;51.270;9.434;2022-10-26T14:22:06;99684.34;;;18.14;71.96
16664;BME280;8445;51.270;9.434;2022-10-26T14:24:35;99687.41;;;18.19;71.63
16664;BME280;8445;51.270;9.434;2022-10-26T14:27:22;99689.53;;;18.16;71.06
16664;BME280;8445;51.270;9.434;2022-10-26T14:29:50;99694.75;;;18.17;71.90
16664;BME280;8445;51.270;9.434;2022-10-26T14:32:22;99695.75;;;18.16;71.95
16664;BME280;8445;51.270;9.434;2022-10-26T14:34:50;99701.41;;;18.13;72.24
16664;BME280;8445;51.270;9.434;2022-10-26T14:38:29;99696.75;;;18.15;71.06
16664;BME280;8445;51.270;9.434;2022-10-26T14:40:27;99702.03;;;18.07;71.25
16664;BME280;8445;51.270;9.434;2022-10-26T14:42:59;99696.47;;;18.00;71.71
16664;BME280;8445;51.270;9.434;2022-10-26T14:45:31;99697.22;;;17.92;72.02
16664;BME280;8445;51.270;9.434;2022-10-26T14:48:00;99702.53;;;17.84;71.46
16664;BME280;8445;51.270;9.434;2022-10-26T14:50:28;99708.50;;;17.78;71.67
16664;BME280;8445;51.270;9.434;2022-10-26T14:53:18;99718.69;;;17.74;71.70
16664;BME280;8445;51.270;9.434;2022-10-26T14:55:49;99728.41;;;17.57;71.76
16664;BME280;8445;51.270;9.434;2022-10-26T14:58:33;99727.03;;;17.53;71.76
16664;BME280;8445;51.270;9.434;2022-10-26T15:04:01;99724.81;;;17.30;71.97
16664;BME280;8445;51.270;9.434;2022-10-26T15:08:57;99734.63;;;17.12;72.51
16664;BME280;8445;51.270;9.434;2022-10-26T15:11:26;99735.69;;;17.01;72.23
16664;BME280;8445;51.270;9.434;2022-10-26T15:13:54;99745.41;;;16.92;72.33
16664;BME280;8445;51.270;9.434;2022-10-26T15:16:27;99744.03;;;16.88;72.58
16664;BME280;8445;51.270;9.434;2022-10-26T15:19:09;99748.00;;;16.84;74.01
16664;BME280;8445;51.270;9.434;2022-10-26T15:21:42;99752.53;;;16.73;72.82
16664;BME280;8445;51.270;9.434;2022-10-26T15:24:38;99740.31;;;16.71;73.64
16664;BME280;8445;51.270;9.434;2022-10-26T15:27:15;99748.66;;;16.58;73.32
16664;BME280;8445;51.270;9.434;2022-10-26T15:29:43;99755.72;;;16.49;73.12
16664;BME280;8445;51.270;9.434;2022-10-26T15:32:32;99762.06;;;16.48;75.49
16664;BME280;8445;51.270;9.434;2022-10-26T15:37:40;99754.94;;;16.29;73.22
16664;BME280;8445;51.270;9.434;2022-10-26T15:40:07;99781.50;;;16.21;73.35
16664;BME280;8445;51.270;9.434;2022-10-26T15:42:40;99779.13;;;16.18;73.84
16664;BME280;8445;51.270;9.434;2022-10-26T15:45:20;99785.03;;;16.11;73.68
16664;BME280;8445;51.270;9.434;2022-10-26T15:47:52;99786.16;;;15.99;73.34
16664;BME280;8445;51.270;9.434;2022-10-26T15:50:24;99779.41;;;15.85;73.57